RYR4769 LOWW-LFOB
Flight info
| Callsign | RYR4769 |
|---|---|
| Flight time | N/A |
| Altitude | 34000 |
| Route | MEDIX DCT RENKA L610 STAUB/N0400F240 L610 MAMOR DCT ASPAT DCT VIBOM DCT BETEX DCT IDOSA DCT TOLVU/N0451F350 DCT RAPOR DCT VEDUS |
| Aircraft | A320/M-SDE3FGHIRWY/LB1 |
Departure
| Time | N/A |
|---|---|
| Airport | Vienna International Airport (LOWW) |
Arrival
| Time | 2026-04-21 19:51 |
|---|---|
| Airport | Beauvais-Tillé airport (LFOB) |
| Time | Latitude | Longitude | Altitude | Speed | Heading |
|---|---|---|---|---|---|
| 2026-04-21 19:20 | 49.64488 | 5.73862 | 35221 ft | 455 kts | 269° |
| 2026-04-21 19:20 | 49.63978 | 5.64131 | 35229 ft | 456 kts | 269° |
| 2026-04-21 19:21 | 49.63460 | 5.54414 | 35232 ft | 454 kts | 269° |
| 2026-04-21 19:21 | 49.62946 | 5.44715 | 35231 ft | 453 kts | 269° |
| 2026-04-21 19:22 | 49.62087 | 5.35091 | 35230 ft | 458 kts | 258° |
| 2026-04-21 19:22 | 49.60099 | 5.25732 | 35227 ft | 458 kts | 258° |
| 2026-04-21 19:23 | 49.59479 | 5.20972 | 35220 ft | 449 kts | 270° |
| 2026-04-21 19:23 | 49.59423 | 5.16197 | 35220 ft | 446 kts | 274° |
| 2026-04-21 19:23 | 49.59448 | 5.06956 | 35222 ft | 445 kts | 274° |
| 2026-04-21 19:24 | 49.59515 | 4.97422 | 35222 ft | 445 kts | 275° |
| 2026-04-21 19:24 | 49.59548 | 4.92679 | 35055 ft | 440 kts | 275° |
| 2026-04-21 19:24 | 49.59581 | 4.87990 | 34320 ft | 435 kts | 275° |
| 2026-04-21 19:25 | 49.59613 | 4.83335 | 33380 ft | 433 kts | 275° |
| 2026-04-21 19:25 | 49.59643 | 4.78711 | 32396 ft | 432 kts | 275° |
| 2026-04-21 19:25 | 49.59666 | 4.74086 | 31404 ft | 431 kts | 275° |
| 2026-04-21 19:25 | 49.59683 | 4.69470 | 30394 ft | 430 kts | 275° |
| 2026-04-21 19:26 | 49.59699 | 4.64857 | 29167 ft | 430 kts | 275° |
| 2026-04-21 19:26 | 49.59714 | 4.60238 | 27797 ft | 433 kts | 275° |
| 2026-04-21 19:26 | 49.59732 | 4.55563 | 26340 ft | 439 kts | 274° |
| 2026-04-21 19:26 | 49.59750 | 4.50812 | 24819 ft | 447 kts | 274° |
| 2026-04-21 19:27 | 49.59762 | 4.45987 | 23585 ft | 451 kts | 273° |
| 2026-04-21 19:27 | 49.59766 | 4.41169 | 22505 ft | 448 kts | 273° |
| 2026-04-21 19:27 | 49.59768 | 4.36389 | 21539 ft | 444 kts | 273° |
| 2026-04-21 19:27 | 49.59770 | 4.31647 | 20629 ft | 441 kts | 272° |
| 2026-04-21 19:28 | 49.59772 | 4.26942 | 19760 ft | 438 kts | 272° |
| 2026-04-21 19:28 | 49.59773 | 4.22266 | 18935 ft | 435 kts | 272° |
| 2026-04-21 19:28 | 49.59773 | 4.17617 | 18089 ft | 433 kts | 272° |
| 2026-04-21 19:28 | 49.59770 | 4.12993 | 17228 ft | 430 kts | 272° |
| 2026-04-21 19:29 | 49.59764 | 4.08462 | 16444 ft | 427 kts | 272° |
| 2026-04-21 19:29 | 49.59758 | 4.03905 | 15691 ft | 424 kts | 272° |
| 2026-04-21 19:29 | 49.59750 | 3.99382 | 14960 ft | 421 kts | 271° |
| 2026-04-21 19:29 | 49.59738 | 3.94889 | 14252 ft | 418 kts | 271° |
| 2026-04-21 19:30 | 49.59724 | 3.90420 | 13466 ft | 416 kts | 271° |
| 2026-04-21 19:30 | 49.59707 | 3.85974 | 12679 ft | 414 kts | 271° |
| 2026-04-21 19:30 | 49.59689 | 3.81551 | 11904 ft | 411 kts | 271° |
| 2026-04-21 19:30 | 49.59672 | 3.77096 | 11123 ft | 409 kts | 271° |
| 2026-04-21 19:31 | 49.59656 | 3.72791 | 10539 ft | 407 kts | 270° |
| 2026-04-21 19:31 | 49.59638 | 3.68411 | 10433 ft | 410 kts | 270° |
| 2026-04-21 19:31 | 49.59615 | 3.64008 | 10253 ft | 410 kts | 270° |
| 2026-04-21 19:31 | 49.59594 | 3.59616 | 10097 ft | 410 kts | 270° |
| 2026-04-21 19:32 | 49.59574 | 3.55228 | 9966 ft | 409 kts | 270° |
| 2026-04-21 19:32 | 49.59556 | 3.50845 | 9824 ft | 409 kts | 270° |
| 2026-04-21 19:32 | 49.59536 | 3.46477 | 9691 ft | 408 kts | 270° |
| 2026-04-21 19:32 | 49.59515 | 3.42106 | 9557 ft | 407 kts | 270° |
| 2026-04-21 19:33 | 49.59502 | 3.39150 | 9469 ft | 407 kts | 270° |
| 2026-04-21 19:33 | 49.59476 | 3.33382 | 9247 ft | 406 kts | 270° |
| 2026-04-21 19:33 | 49.59458 | 3.29038 | 9197 ft | 405 kts | 270° |
| 2026-04-21 19:33 | 49.59440 | 3.24687 | 9208 ft | 406 kts | 270° |
| 2026-04-21 19:34 | 49.59422 | 3.20336 | 9211 ft | 406 kts | 270° |
| 2026-04-21 19:34 | 49.59403 | 3.15989 | 9209 ft | 406 kts | 270° |
| 2026-04-21 19:34 | 49.59383 | 3.11636 | 9211 ft | 406 kts | 270° |
| 2026-04-21 19:34 | 49.59361 | 3.07283 | 9205 ft | 406 kts | 270° |
| 2026-04-21 19:35 | 49.59338 | 3.02930 | 9206 ft | 406 kts | 270° |
| 2026-04-21 19:35 | 49.59287 | 2.94219 | 9207 ft | 406 kts | 270° |
| 2026-04-21 19:35 | 49.59261 | 2.89866 | 9208 ft | 406 kts | 270° |
| 2026-04-21 19:36 | 49.59235 | 2.85513 | 9206 ft | 406 kts | 270° |
| 2026-04-21 19:36 | 49.59209 | 2.81164 | 9206 ft | 406 kts | 270° |
| 2026-04-21 19:36 | 49.59182 | 2.76827 | 9208 ft | 405 kts | 270° |
| 2026-04-21 19:36 | 49.59156 | 2.72481 | 9207 ft | 405 kts | 270° |
| 2026-04-21 19:37 | 49.59130 | 2.68138 | 9206 ft | 405 kts | 270° |
| 2026-04-21 19:37 | 49.59102 | 2.63791 | 9202 ft | 405 kts | 270° |
| 2026-04-21 19:37 | 49.59075 | 2.59451 | 9203 ft | 405 kts | 270° |
| 2026-04-21 19:37 | 49.59049 | 2.55116 | 9200 ft | 405 kts | 270° |
| 2026-04-21 19:38 | 49.59020 | 2.50777 | 9201 ft | 405 kts | 270° |
| 2026-04-21 19:38 | 49.58989 | 2.46439 | 9199 ft | 405 kts | 270° |
| 2026-04-21 19:38 | 49.58968 | 2.43563 | 9200 ft | 405 kts | 270° |
| 2026-04-21 19:38 | 49.58926 | 2.37765 | 9195 ft | 405 kts | 270° |
| 2026-04-21 19:39 | 49.58893 | 2.33430 | 9196 ft | 404 kts | 270° |
| 2026-04-21 19:39 | 49.58859 | 2.29096 | 9194 ft | 405 kts | 270° |
| 2026-04-21 19:39 | 49.58825 | 2.24851 | 9184 ft | 390 kts | 270° |
| 2026-04-21 19:39 | 49.58787 | 2.20887 | 9191 ft | 350 kts | 270° |
| 2026-04-21 19:40 | 49.58747 | 2.17270 | 9189 ft | 317 kts | 270° |
| 2026-04-21 19:40 | 49.58559 | 2.14096 | 9146 ft | 291 kts | 254° |
| 2026-04-21 19:40 | 49.57652 | 2.11480 | 9010 ft | 267 kts | 228° |
| 2026-04-21 19:40 | 49.56392 | 2.09448 | 8493 ft | 264 kts | 223° |
| 2026-04-21 19:41 | 49.55068 | 2.07467 | 7744 ft | 264 kts | 221° |
| 2026-04-21 19:41 | 49.53760 | 2.05483 | 6879 ft | 263 kts | 221° |
| 2026-04-21 19:41 | 49.52478 | 2.03481 | 6040 ft | 262 kts | 222° |
| 2026-04-21 19:41 | 49.51219 | 2.01479 | 5179 ft | 260 kts | 222° |
| 2026-04-21 19:42 | 49.49957 | 1.99459 | 4574 ft | 263 kts | 222° |
| 2026-04-21 19:42 | 49.48694 | 1.97440 | 4255 ft | 261 kts | 222° |
| 2026-04-21 19:42 | 49.47679 | 1.95136 | 3912 ft | 264 kts | 249° |
| 2026-04-21 19:42 | 49.47455 | 1.92602 | 3597 ft | 263 kts | 275° |
| 2026-04-21 19:43 | 49.47693 | 1.89820 | 3209 ft | 262 kts | 281° |
| 2026-04-21 19:43 | 49.47998 | 1.87081 | 3023 ft | 254 kts | 282° |
| 2026-04-21 19:43 | 49.48287 | 1.84490 | 3034 ft | 238 kts | 282° |
| 2026-04-21 19:43 | 49.48559 | 1.82040 | 3037 ft | 228 kts | 282° |
| 2026-04-21 19:44 | 49.48824 | 1.79658 | 3035 ft | 223 kts | 285° |
| 2026-04-21 19:44 | 49.49424 | 1.77522 | 3052 ft | 216 kts | 308° |
| 2026-04-21 19:44 | 49.50339 | 1.75734 | 3034 ft | 208 kts | 331° |
| 2026-04-21 19:44 | 49.51636 | 1.75007 | 3058 ft | 204 kts | 8° |
| 2026-04-21 19:45 | 49.52955 | 1.75641 | 3050 ft | 198 kts | 43° |
| 2026-04-21 19:45 | 49.53711 | 1.77320 | 3051 ft | 192 kts | 74° |
| 2026-04-21 19:45 | 49.53998 | 1.79337 | 3045 ft | 194 kts | 81° |
| 2026-04-21 19:45 | 49.54202 | 1.81378 | 3046 ft | 193 kts | 82° |
| 2026-04-21 19:46 | 49.54389 | 1.83440 | 3052 ft | 204 kts | 82° |
| 2026-04-21 19:46 | 49.54606 | 1.85896 | 3049 ft | 257 kts | 82° |
| 2026-04-21 19:46 | 49.54671 | 1.88580 | 3032 ft | 239 kts | 97° |
| 2026-04-21 19:46 | 49.54198 | 1.90923 | 3033 ft | 220 kts | 114° |
| 2026-04-21 19:47 | 49.53413 | 1.92818 | 3007 ft | 201 kts | 119° |
| 2026-04-21 19:47 | 49.52667 | 1.94554 | 2826 ft | 189 kts | 118° |
| 2026-04-21 19:47 | 49.51969 | 1.96181 | 2588 ft | 181 kts | 117° |
| 2026-04-21 19:47 | 49.51300 | 1.97731 | 2391 ft | 167 kts | 117° |
| 2026-04-21 19:48 | 49.50683 | 1.99159 | 2143 ft | 153 kts | 116° |
| 2026-04-21 19:48 | 49.50117 | 2.00469 | 1931 ft | 144 kts | 115° |
| 2026-04-21 19:48 | 49.49564 | 2.01785 | 1728 ft | 150 kts | 115° |
| 2026-04-21 19:48 | 49.48991 | 2.03127 | 1575 ft | 151 kts | 117° |
| 2026-04-21 19:49 | 49.48394 | 2.04420 | 1310 ft | 146 kts | 116° |
| 2026-04-21 19:49 | 49.47833 | 2.05703 | 1063 ft | 142 kts | 116° |
| 2026-04-21 19:49 | 49.47298 | 2.06978 | 873 ft | 142 kts | 120° |
| 2026-04-21 19:49 | 49.46742 | 2.08226 | 726 ft | 141 kts | 116° |
| 2026-04-21 19:50 | 49.46387 | 2.09089 | 597 ft | 141 kts | 117° |
| 2026-04-21 19:50 | 49.45663 | 2.10760 | 363 ft | 141 kts | 121° |
| 2026-04-21 19:50 | 49.45211 | 2.11809 | 362 ft | 91 kts | 123° |
| 2026-04-21 19:50 | 49.44902 | 2.12516 | 361 ft | 73 kts | 124° |
| 2026-04-21 19:51 | 49.44706 | 2.12973 | 358 ft | 16 kts | 124° |
| 2026-04-21 19:51 | 49.44664 | 2.13125 | 360 ft | 16 kts | 108° |
| 2026-04-21 19:51 | 49.44666 | 2.13243 | 359 ft | 13 kts | 60° |
| 2026-04-21 19:51 | 49.44757 | 2.13280 | 357 ft | 15 kts | 333° |
| 2026-04-21 19:52 | 49.44830 | 2.13139 | 346 ft | 19 kts | 306° |
| 2026-04-21 19:52 | 49.44907 | 2.12958 | 349 ft | 20 kts | 310° |
| 2026-04-21 19:52 | 49.44990 | 2.12771 | 350 ft | 17 kts | 301° |
| 2026-04-21 19:52 | 49.45022 | 2.12629 | 350 ft | 13 kts | 277° |
| 2026-04-21 19:53 | 49.45030 | 2.12489 | 354 ft | 12 kts | 274° |
| 2026-04-21 19:53 | 49.45035 | 2.12361 | 356 ft | 11 kts | 273° |
| 2026-04-21 19:53 | 49.45042 | 2.12218 | 364 ft | 18 kts | 282° |
| 2026-04-21 19:53 | 49.45166 | 2.11914 | 361 ft | 59 kts | 305° |
| 2026-04-21 19:54 | 49.45395 | 2.11403 | 356 ft | 61 kts | 305° |
| 2026-04-21 19:54 | 49.45570 | 2.10982 | 366 ft | 17 kts | 303° |
| 2026-04-21 19:54 | 49.45642 | 2.10867 | 358 ft | 8 kts | 351° |
| 2026-04-21 19:54 | 49.45693 | 2.10899 | 362 ft | 9 kts | 29° |
| 2026-04-21 19:55 | 49.45764 | 2.10958 | 357 ft | 13 kts | 28° |
| 2026-04-21 19:55 | 49.45800 | 2.11005 | 354 ft | 5 kts | 83° |
| 2026-04-21 19:55 | 49.45792 | 2.11059 | 354 ft | 7 kts | 71° |
| 2026-04-21 19:55 | 49.45825 | 2.11101 | 351 ft | 0 kts | 35° |